sensor_id;sensor_type;location;lat;lon;timestamp;P1;durP1;ratioP1;P2;durP2;ratioP2
49029;SDS011;43337;52.070;4.508;2023-02-28T00:00:19;9.68;;;2.78;;
49029;SDS011;43337;52.070;4.508;2023-02-28T00:02:45;6.18;;;2.97;;
49029;SDS011;43337;52.070;4.508;2023-02-28T00:05:12;5.65;;;2.45;;
49029;SDS011;43337;52.070;4.508;2023-02-28T00:07:38;5.47;;;2.55;;
49029;SDS011;43337;52.070;4.508;2023-02-28T00:10:04;8.60;;;2.67;;
49029;SDS011;43337;52.070;4.508;2023-02-28T00:12:32;7.18;;;2.63;;
49029;SDS011;43337;52.070;4.508;2023-02-28T00:14:58;8.93;;;2.92;;
49029;SDS011;43337;52.070;4.508;2023-02-28T00:17:24;10.50;;;3.30;;
49029;SDS011;43337;52.070;4.508;2023-02-28T00:19:49;8.10;;;2.67;;
49029;SDS011;43337;52.070;4.508;2023-02-28T00:22:16;5.85;;;2.25;;
49029;SDS011;43337;52.070;4.508;2023-02-28T00:24:44;8.10;;;2.58;;
49029;SDS011;43337;52.070;4.508;2023-02-28T00:27:09;9.63;;;2.60;;
49029;SDS011;43337;52.070;4.508;2023-02-28T00:29:35;7.30;;;2.47;;
49029;SDS011;43337;52.070;4.508;2023-02-28T00:32:01;7.55;;;3.58;;
49029;SDS011;43337;52.070;4.508;2023-02-28T00:34:26;5.85;;;2.53;;
49029;SDS011;43337;52.070;4.508;2023-02-28T00:36:52;8.98;;;2.72;;
49029;SDS011;43337;52.070;4.508;2023-02-28T00:39:17;7.80;;;2.80;;
49029;SDS011;43337;52.070;4.508;2023-02-28T00:41:43;4.45;;;2.38;;
49029;SDS011;43337;52.070;4.508;2023-02-28T00:44:08;5.85;;;2.55;;
49029;SDS011;43337;52.070;4.508;2023-02-28T00:46:34;8.60;;;2.97;;
49029;SDS011;43337;52.070;4.508;2023-02-28T00:48:59;5.90;;;2.20;;
49029;SDS011;43337;52.070;4.508;2023-02-28T00:51:25;8.43;;;2.70;;
49029;SDS011;43337;52.070;4.508;2023-02-28T00:53:50;8.38;;;2.80;;
49029;SDS011;43337;52.070;4.508;2023-02-28T00:56:15;8.18;;;3.03;;
49029;SDS011;43337;52.070;4.508;2023-02-28T00:58:41;9.27;;;2.70;;
49029;SDS011;43337;52.070;4.508;2023-02-28T01:01:07;10.55;;;3.10;;
49029;SDS011;43337;52.070;4.508;2023-02-28T01:03:32;5.35;;;2.55;;
49029;SDS011;43337;52.070;4.508;2023-02-28T01:05:58;6.28;;;2.92;;
49029;SDS011;43337;52.070;4.508;2023-02-28T01:08:24;6.70;;;2.83;;
49029;SDS011;43337;52.070;4.508;2023-02-28T01:10:50;9.60;;;3.08;;
49029;SDS011;43337;52.070;4.508;2023-02-28T01:13:16;6.35;;;2.90;;
49029;SDS011;43337;52.070;4.508;2023-02-28T01:15:43;8.57;;;2.90;;
49029;SDS011;43337;52.070;4.508;2023-02-28T01:18:13;6.25;;;2.75;;
49029;SDS011;43337;52.070;4.508;2023-02-28T01:20:38;6.70;;;2.60;;
49029;SDS011;43337;52.070;4.508;2023-02-28T01:23:04;6.53;;;2.70;;
49029;SDS011;43337;52.070;4.508;2023-02-28T01:25:30;7.60;;;3.20;;
49029;SDS011;43337;52.070;4.508;2023-02-28T01:27:55;5.63;;;2.72;;
49029;SDS011;43337;52.070;4.508;2023-02-28T01:30:21;9.25;;;2.83;;
49029;SDS011;43337;52.070;4.508;2023-02-28T01:32:46;8.35;;;3.05;;
49029;SDS011;43337;52.070;4.508;2023-02-28T01:35:12;6.00;;;2.83;;
49029;SDS011;43337;52.070;4.508;2023-02-28T01:37:37;8.30;;;3.25;;
49029;SDS011;43337;52.070;4.508;2023-02-28T01:40:03;9.77;;;3.35;;
49029;SDS011;43337;52.070;4.508;2023-02-28T01:42:29;7.50;;;3.55;;
49029;SDS011;43337;52.070;4.508;2023-02-28T01:44:55;7.72;;;2.90;;
49029;SDS011;43337;52.070;4.508;2023-02-28T01:47:41;5.47;;;2.70;;
49029;SDS011;43337;52.070;4.508;2023-02-28T01:50:13;12.10;;;4.07;;
49029;SDS011;43337;52.070;4.508;2023-02-28T01:52:42;7.18;;;3.22;;
49029;SDS011;43337;52.070;4.508;2023-02-28T01:55:10;6.20;;;2.78;;
49029;SDS011;43337;52.070;4.508;2023-02-28T01:57:41;12.00;;;3.22;;
49029;SDS011;43337;52.070;4.508;2023-02-28T02:00:13;6.88;;;2.78;;
49029;SDS011;43337;52.070;4.508;2023-02-28T02:02:44;11.10;;;3.10;;
49029;SDS011;43337;52.070;4.508;2023-02-28T02:05:14;9.30;;;3.00;;
49029;SDS011;43337;52.070;4.508;2023-02-28T02:07:45;12.40;;;3.90;;
49029;SDS011;43337;52.070;4.508;2023-02-28T02:10:14;8.43;;;3.42;;
49029;SDS011;43337;52.070;4.508;2023-02-28T02:12:56;11.40;;;3.67;;
49029;SDS011;43337;52.070;4.508;2023-02-28T02:15:34;11.55;;;3.05;;
49029;SDS011;43337;52.070;4.508;2023-02-28T02:18:17;8.27;;;2.95;;
49029;SDS011;43337;52.070;4.508;2023-02-28T02:29:40;9.40;;;3.40;;
49029;SDS011;43337;52.070;4.508;2023-02-28T02:40:28;10.95;;;3.40;;
49029;SDS011;43337;52.070;4.508;2023-02-28T02:46:01;9.95;;;3.55;;
49029;SDS011;43337;52.070;4.508;2023-02-28T02:48:31;6.95;;;3.53;;
49029;SDS011;43337;52.070;4.508;2023-02-28T02:51:02;8.75;;;4.05;;
49029;SDS011;43337;52.070;4.508;2023-02-28T02:53:38;8.27;;;3.80;;
49029;SDS011;43337;52.070;4.508;2023-02-28T02:56:11;8.57;;;3.97;;
49029;SDS011;43337;52.070;4.508;2023-02-28T02:58:40;9.02;;;3.58;;
49029;SDS011;43337;52.070;4.508;2023-02-28T03:01:10;9.20;;;3.83;;
49029;SDS011;43337;52.070;4.508;2023-02-28T03:03:40;8.95;;;3.30;;
49029;SDS011;43337;52.070;4.508;2023-02-28T03:06:07;10.48;;;3.67;;
49029;SDS011;43337;52.070;4.508;2023-02-28T03:08:34;8.98;;;4.00;;
49029;SDS011;43337;52.070;4.508;2023-02-28T03:11:02;10.35;;;4.05;;
49029;SDS011;43337;52.070;4.508;2023-02-28T03:21:48;12.73;;;4.35;;
49029;SDS011;43337;52.070;4.508;2023-02-28T03:30:03;12.82;;;4.57;;
49029;SDS011;43337;52.070;4.508;2023-02-28T03:32:33;10.73;;;4.38;;
49029;SDS011;43337;52.070;4.508;2023-02-28T03:35:07;16.60;;;4.57;;
49029;SDS011;43337;52.070;4.508;2023-02-28T03:37:39;10.02;;;3.97;;
49029;SDS011;43337;52.070;4.508;2023-02-28T03:40:10;15.15;;;5.10;;
49029;SDS011;43337;52.070;4.508;2023-02-28T03:42:40;9.77;;;4.63;;
49029;SDS011;43337;52.070;4.508;2023-02-28T03:45:10;12.27;;;5.03;;
49029;SDS011;43337;52.070;4.508;2023-02-28T03:47:40;9.32;;;4.82;;
49029;SDS011;43337;52.070;4.508;2023-02-28T03:50:11;10.07;;;4.57;;
49029;SDS011;43337;52.070;4.508;2023-02-28T03:52:43;14.40;;;5.10;;
49029;SDS011;43337;52.070;4.508;2023-02-28T03:55:15;13.50;;;5.07;;
49029;SDS011;43337;52.070;4.508;2023-02-28T03:58:28;11.23;;;5.07;;
49029;SDS011;43337;52.070;4.508;2023-02-28T04:01:57;9.73;;;4.32;;
49029;SDS011;43337;52.070;4.508;2023-02-28T04:04:03;12.05;;;4.90;;
49029;SDS011;43337;52.070;4.508;2023-02-28T04:06:30;10.88;;;4.60;;
49029;SDS011;43337;52.070;4.508;2023-02-28T04:08:57;12.75;;;5.07;;
49029;SDS011;43337;52.070;4.508;2023-02-28T04:11:33;8.10;;;4.70;;
49029;SDS011;43337;52.070;4.508;2023-02-28T04:14:04;9.82;;;4.53;;
49029;SDS011;43337;52.070;4.508;2023-02-28T04:16:31;11.13;;;5.10;;
49029;SDS011;43337;52.070;4.508;2023-02-28T04:18:57;12.88;;;5.20;;
49029;SDS011;43337;52.070;4.508;2023-02-28T04:23:59;9.85;;;5.18;;
49029;SDS011;43337;52.070;4.508;2023-02-28T04:26:32;12.20;;;4.93;;
49029;SDS011;43337;52.070;4.508;2023-02-28T04:28:59;17.05;;;5.10;;
49029;SDS011;43337;52.070;4.508;2023-02-28T04:31:25;11.38;;;5.13;;
49029;SDS011;43337;52.070;4.508;2023-02-28T04:33:50;12.38;;;4.88;;
49029;SDS011;43337;52.070;4.508;2023-02-28T04:36:16;13.07;;;4.90;;
49029;SDS011;43337;52.070;4.508;2023-02-28T04:38:45;24.23;;;5.53;;
49029;SDS011;43337;52.070;4.508;2023-02-28T04:41:11;13.88;;;5.20;;
49029;SDS011;43337;52.070;4.508;2023-02-28T04:43:37;12.90;;;5.32;;
49029;SDS011;43337;52.070;4.508;2023-02-28T04:46:03;15.20;;;6.10;;
49029;SDS011;43337;52.070;4.508;2023-02-28T04:48:30;10.88;;;5.03;;
49029;SDS011;43337;52.070;4.508;2023-02-28T04:51:07;12.88;;;5.03;;
49029;SDS011;43337;52.070;4.508;2023-02-28T04:53:35;11.13;;;5.65;;
49029;SDS011;43337;52.070;4.508;2023-02-28T04:56:02;10.02;;;5.35;;
49029;SDS011;43337;52.070;4.508;2023-02-28T04:58:29;12.68;;;5.15;;
49029;SDS011;43337;52.070;4.508;2023-02-28T05:00:57;9.05;;;4.45;;
49029;SDS011;43337;52.070;4.508;2023-02-28T05:03:27;11.13;;;4.93;;
49029;SDS011;43337;52.070;4.508;2023-02-28T05:05:52;10.70;;;5.13;;
49029;SDS011;43337;52.070;4.508;2023-02-28T05:08:17;11.82;;;5.10;;
49029;SDS011;43337;52.070;4.508;2023-02-28T05:10:43;11.88;;;5.05;;
49029;SDS011;43337;52.070;4.508;2023-02-28T05:13:10;10.93;;;5.18;;
49029;SDS011;43337;52.070;4.508;2023-02-28T05:15:37;9.63;;;4.70;;
49029;SDS011;43337;52.070;4.508;2023-02-28T05:18:02;13.75;;;5.32;;
49029;SDS011;43337;52.070;4.508;2023-02-28T05:20:28;10.25;;;4.72;;
49029;SDS011;43337;52.070;4.508;2023-02-28T05:22:53;12.38;;;5.63;;
49029;SDS011;43337;52.070;4.508;2023-02-28T05:25:20;11.85;;;6.25;;
49029;SDS011;43337;52.070;4.508;2023-02-28T05:27:49;12.38;;;5.20;;
49029;SDS011;43337;52.070;4.508;2023-02-28T05:30:14;13.60;;;5.10;;
49029;SDS011;43337;52.070;4.508;2023-02-28T05:32:40;9.85;;;4.78;;
49029;SDS011;43337;52.070;4.508;2023-02-28T05:35:10;11.55;;;4.75;;
49029;SDS011;43337;52.070;4.508;2023-02-28T05:37:36;9.48;;;4.57;;
49029;SDS011;43337;52.070;4.508;2023-02-28T05:40:03;10.73;;;5.47;;
49029;SDS011;43337;52.070;4.508;2023-02-28T05:42:35;12.57;;;5.53;;
49029;SDS011;43337;52.070;4.508;2023-02-28T05:45:01;11.52;;;5.03;;
49029;SDS011;43337;52.070;4.508;2023-02-28T05:47:26;9.85;;;5.13;;
49029;SDS011;43337;52.070;4.508;2023-02-28T05:49:52;13.48;;;5.80;;
49029;SDS011;43337;52.070;4.508;2023-02-28T05:52:17;11.32;;;5.15;;
49029;SDS011;43337;52.070;4.508;2023-02-28T05:54:42;12.35;;;5.03;;
49029;SDS011;43337;52.070;4.508;2023-02-28T05:57:08;16.80;;;5.72;;
49029;SDS011;43337;52.070;4.508;2023-02-28T05:59:33;11.98;;;5.10;;
49029;SDS011;43337;52.070;4.508;2023-02-28T06:01:59;9.25;;;4.45;;
49029;SDS011;43337;52.070;4.508;2023-02-28T06:04:24;13.88;;;4.72;;
49029;SDS011;43337;52.070;4.508;2023-02-28T06:06:50;18.25;;;8.45;;
49029;SDS011;43337;52.070;4.508;2023-02-28T06:09:16;12.88;;;6.28;;
49029;SDS011;43337;52.070;4.508;2023-02-28T06:11:42;13.07;;;5.68;;
49029;SDS011;43337;52.070;4.508;2023-02-28T06:14:12;12.30;;;5.68;;
49029;SDS011;43337;52.070;4.508;2023-02-28T06:16:40;11.25;;;5.03;;
49029;SDS011;43337;52.070;4.508;2023-02-28T06:19:06;9.70;;;4.75;;
49029;SDS011;43337;52.070;4.508;2023-02-28T06:21:31;11.85;;;5.00;;
49029;SDS011;43337;52.070;4.508;2023-02-28T06:23:57;12.38;;;5.32;;
49029;SDS011;43337;52.070;4.508;2023-02-28T06:26:23;11.02;;;4.88;;
49029;SDS011;43337;52.070;4.508;2023-02-28T06:28:49;14.48;;;5.45;;
49029;SDS011;43337;52.070;4.508;2023-02-28T06:31:16;14.55;;;5.80;;
49029;SDS011;43337;52.070;4.508;2023-02-28T06:33:43;11.18;;;6.45;;
49029;SDS011;43337;52.070;4.508;2023-02-28T06:36:10;11.93;;;6.50;;
49029;SDS011;43337;52.070;4.508;2023-02-28T06:38:38;10.75;;;5.35;;
49029;SDS011;43337;52.070;4.508;2023-02-28T06:41:04;12.95;;;6.03;;
49029;SDS011;43337;52.070;4.508;2023-02-28T06:43:31;13.15;;;6.35;;
49029;SDS011;43337;52.070;4.508;2023-02-28T06:45:59;13.23;;;5.57;;
49029;SDS011;43337;52.070;4.508;2023-02-28T06:48:26;12.65;;;5.75;;
49029;SDS011;43337;52.070;4.508;2023-02-28T06:50:52;9.35;;;4.78;;
49029;SDS011;43337;52.070;4.508;2023-02-28T06:53:25;7.53;;;4.25;;
49029;SDS011;43337;52.070;4.508;2023-02-28T06:55:51;9.32;;;4.15;;
49029;SDS011;43337;52.070;4.508;2023-02-28T06:58:16;8.30;;;3.70;;
49029;SDS011;43337;52.070;4.508;2023-02-28T07:00:44;7.03;;;3.70;;
49029;SDS011;43337;52.070;4.508;2023-02-28T07:03:11;6.78;;;3.58;;
49029;SDS011;43337;52.070;4.508;2023-02-28T07:05:38;7.55;;;3.50;;
49029;SDS011;43337;52.070;4.508;2023-02-28T07:08:04;6.30;;;3.55;;
49029;SDS011;43337;52.070;4.508;2023-02-28T07:10:34;9.05;;;3.50;;
49029;SDS011;43337;52.070;4.508;2023-02-28T07:13:01;9.65;;;4.03;;
49029;SDS011;43337;52.070;4.508;2023-02-28T07:15:28;5.35;;;2.95;;
49029;SDS011;43337;52.070;4.508;2023-02-28T07:17:54;6.40;;;3.30;;
49029;SDS011;43337;52.070;4.508;2023-02-28T07:20:19;5.22;;;3.20;;
49029;SDS011;43337;52.070;4.508;2023-02-28T07:22:46;7.55;;;4.07;;
49029;SDS011;43337;52.070;4.508;2023-02-28T07:25:16;7.38;;;3.40;;
49029;SDS011;43337;52.070;4.508;2023-02-28T07:27:42;7.80;;;4.20;;
49029;SDS011;43337;52.070;4.508;2023-02-28T07:30:07;8.65;;;4.00;;
49029;SDS011;43337;52.070;4.508;2023-02-28T07:32:33;10.32;;;4.20;;
49029;SDS011;43337;52.070;4.508;2023-02-28T07:35:02;5.95;;;3.38;;
49029;SDS011;43337;52.070;4.508;2023-02-28T07:37:28;8.13;;;4.47;;
49029;SDS011;43337;52.070;4.508;2023-02-28T07:39:56;10.57;;;3.75;;
49029;SDS011;43337;52.070;4.508;2023-02-28T07:42:22;9.25;;;3.72;;
49029;SDS011;43337;52.070;4.508;2023-02-28T07:44:47;9.90;;;3.90;;
49029;SDS011;43337;52.070;4.508;2023-02-28T07:47:12;9.38;;;4.45;;
49029;SDS011;43337;52.070;4.508;2023-02-28T07:49:39;8.90;;;4.65;;
49029;SDS011;43337;52.070;4.508;2023-02-28T07:52:05;10.98;;;4.10;;
49029;SDS011;43337;52.070;4.508;2023-02-28T07:54:32;8.80;;;4.18;;
49029;SDS011;43337;52.070;4.508;2023-02-28T07:56:58;11.55;;;4.47;;
49029;SDS011;43337;52.070;4.508;2023-02-28T07:59:23;8.55;;;4.32;;
49029;SDS011;43337;52.070;4.508;2023-02-28T08:01:49;10.07;;;5.03;;
49029;SDS011;43337;52.070;4.508;2023-02-28T08:04:15;8.50;;;4.63;;
49029;SDS011;43337;52.070;4.508;2023-02-28T08:06:42;10.32;;;4.82;;
49029;SDS011;43337;52.070;4.508;2023-02-28T08:09:07;12.00;;;5.43;;
49029;SDS011;43337;52.070;4.508;2023-02-28T08:11:32;11.90;;;5.45;;
49029;SDS011;43337;52.070;4.508;2023-02-28T08:13:58;11.45;;;5.97;;
49029;SDS011;43337;52.070;4.508;2023-02-28T08:16:23;10.52;;;5.35;;
49029;SDS011;43337;52.070;4.508;2023-02-28T08:18:52;13.73;;;6.18;;
49029;SDS011;43337;52.070;4.508;2023-02-28T08:21:18;10.70;;;4.95;;
49029;SDS011;43337;52.070;4.508;2023-02-28T08:23:46;12.23;;;5.40;;
49029;SDS011;43337;52.070;4.508;2023-02-28T08:26:13;11.82;;;5.93;;
49029;SDS011;43337;52.070;4.508;2023-02-28T08:28:39;10.55;;;5.35;;
49029;SDS011;43337;52.070;4.508;2023-02-28T08:31:11;12.80;;;5.05;;
49029;SDS011;43337;52.070;4.508;2023-02-28T08:33:38;10.80;;;6.30;;
49029;SDS011;43337;52.070;4.508;2023-02-28T08:36:05;10.77;;;5.53;;
49029;SDS011;43337;52.070;4.508;2023-02-28T08:38:31;11.35;;;5.55;;
49029;SDS011;43337;52.070;4.508;2023-02-28T08:40:58;12.23;;;5.80;;
49029;SDS011;43337;52.070;4.508;2023-02-28T08:43:24;10.18;;;5.72;;
49029;SDS011;43337;52.070;4.508;2023-02-28T08:45:53;11.02;;;5.68;;
49029;SDS011;43337;52.070;4.508;2023-02-28T08:48:21;11.95;;;6.15;;
49029;SDS011;43337;52.070;4.508;2023-02-28T08:51:05;13.48;;;6.13;;
49029;SDS011;43337;52.070;4.508;2023-02-28T08:53:34;12.15;;;6.85;;
49029;SDS011;43337;52.070;4.508;2023-02-28T08:56:04;13.50;;;6.93;;
49029;SDS011;43337;52.070;4.508;2023-02-28T08:58:34;14.23;;;6.77;;
49029;SDS011;43337;52.070;4.508;2023-02-28T09:01:06;13.93;;;7.88;;
49029;SDS011;43337;52.070;4.508;2023-02-28T09:03:33;13.43;;;5.78;;
49029;SDS011;43337;52.070;4.508;2023-02-28T09:05:59;12.13;;;6.80;;
49029;SDS011;43337;52.070;4.508;2023-02-28T09:08:26;11.90;;;6.18;;
49029;SDS011;43337;52.070;4.508;2023-02-28T09:10:55;14.27;;;7.35;;
49029;SDS011;43337;52.070;4.508;2023-02-28T09:13:22;13.85;;;6.85;;
49029;SDS011;43337;52.070;4.508;2023-02-28T09:15:48;15.07;;;6.47;;
49029;SDS011;43337;52.070;4.508;2023-02-28T09:18:14;13.23;;;6.15;;
49029;SDS011;43337;52.070;4.508;2023-02-28T09:20:40;12.18;;;5.53;;
49029;SDS011;43337;52.070;4.508;2023-02-28T09:23:07;11.02;;;5.43;;
49029;SDS011;43337;52.070;4.508;2023-02-28T09:25:34;11.27;;;6.10;;
49029;SDS011;43337;52.070;4.508;2023-02-28T09:27:59;11.00;;;6.00;;
49029;SDS011;43337;52.070;4.508;2023-02-28T09:30:25;12.30;;;5.68;;
49029;SDS011;43337;52.070;4.508;2023-02-28T09:32:50;9.90;;;5.07;;
49029;SDS011;43337;52.070;4.508;2023-02-28T09:35:20;9.07;;;4.88;;
49029;SDS011;43337;52.070;4.508;2023-02-28T09:37:47;11.25;;;5.18;;
49029;SDS011;43337;52.070;4.508;2023-02-28T09:40:13;10.90;;;5.43;;
49029;SDS011;43337;52.070;4.508;2023-02-28T09:42:42;17.33;;;6.10;;
49029;SDS011;43337;52.070;4.508;2023-02-28T09:45:21;10.50;;;5.60;;
49029;SDS011;43337;52.070;4.508;2023-02-28T09:47:52;8.50;;;5.20;;
49029;SDS011;43337;52.070;4.508;2023-02-28T09:52:58;10.32;;;5.10;;
49029;SDS011;43337;52.070;4.508;2023-02-28T09:55:33;9.80;;;4.90;;
49029;SDS011;43337;52.070;4.508;2023-02-28T09:58:04;8.90;;;4.80;;
49029;SDS011;43337;52.070;4.508;2023-02-28T10:00:33;10.93;;;4.85;;
49029;SDS011;43337;52.070;4.508;2023-02-28T10:05:52;8.75;;;4.57;;
49029;SDS011;43337;52.070;4.508;2023-02-28T10:08:26;10.45;;;5.30;;
49029;SDS011;43337;52.070;4.508;2023-02-28T10:11:03;10.05;;;4.05;;
49029;SDS011;43337;52.070;4.508;2023-02-28T10:13:52;9.45;;;4.43;;
49029;SDS011;43337;52.070;4.508;2023-02-28T10:16:30;8.05;;;3.88;;
49029;SDS011;43337;52.070;4.508;2023-02-28T10:19:11;7.60;;;3.28;;
49029;SDS011;43337;52.070;4.508;2023-02-28T10:21:45;5.75;;;3.58;;
49029;SDS011;43337;52.070;4.508;2023-02-28T10:24:58;7.35;;;4.03;;
49029;SDS011;43337;52.070;4.508;2023-02-28T10:27:18;8.40;;;4.00;;
49029;SDS011;43337;52.070;4.508;2023-02-28T10:29:47;7.28;;;3.53;;
49029;SDS011;43337;52.070;4.508;2023-02-28T10:32:16;8.95;;;3.83;;
49029;SDS011;43337;52.070;4.508;2023-02-28T10:34:43;8.60;;;3.60;;
49029;SDS011;43337;52.070;4.508;2023-02-28T10:37:10;9.63;;;3.97;;
49029;SDS011;43337;52.070;4.508;2023-02-28T10:39:44;10.50;;;4.30;;
49029;SDS011;43337;52.070;4.508;2023-02-28T10:42:45;6.03;;;3.67;;
49029;SDS011;43337;52.070;4.508;2023-02-28T10:45:11;7.50;;;3.97;;
49029;SDS011;43337;52.070;4.508;2023-02-28T10:53:48;6.97;;;2.90;;
49029;SDS011;43337;52.070;4.508;2023-02-28T11:09:31;6.00;;;3.03;;
49029;SDS011;43337;52.070;4.508;2023-02-28T11:12:04;6.20;;;3.08;;
49029;SDS011;43337;52.070;4.508;2023-02-28T11:14:47;6.82;;;2.92;;
49029;SDS011;43337;52.070;4.508;2023-02-28T11:17:20;4.60;;;2.67;;
49029;SDS011;43337;52.070;4.508;2023-02-28T11:19:50;5.43;;;2.72;;
49029;SDS011;43337;52.070;4.508;2023-02-28T11:22:21;6.93;;;2.85;;
49029;SDS011;43337;52.070;4.508;2023-02-28T11:24:53;3.90;;;2.45;;
49029;SDS011;43337;52.070;4.508;2023-02-28T11:29:56;6.93;;;2.63;;
49029;SDS011;43337;52.070;4.508;2023-02-28T11:32:26;4.35;;;2.60;;
49029;SDS011;43337;52.070;4.508;2023-02-28T11:35:03;4.97;;;2.33;;
49029;SDS011;43337;52.070;4.508;2023-02-28T11:37:50;6.15;;;2.67;;
49029;SDS011;43337;52.070;4.508;2023-02-28T11:40:16;4.13;;;2.30;;
49029;SDS011;43337;52.070;4.508;2023-02-28T11:42:50;6.38;;;2.47;;
49029;SDS011;43337;52.070;4.508;2023-02-28T11:48:15;5.60;;;2.63;;
49029;SDS011;43337;52.070;4.508;2023-02-28T11:53:14;5.22;;;2.25;;
49029;SDS011;43337;52.070;4.508;2023-02-28T11:55:59;4.40;;;2.15;;
49029;SDS011;43337;52.070;4.508;2023-02-28T11:58:29;6.13;;;2.13;;
49029;SDS011;43337;52.070;4.508;2023-02-28T12:01:15;7.43;;;2.05;;
49029;SDS011;43337;52.070;4.508;2023-02-28T12:06:36;5.20;;;2.05;;
49029;SDS011;43337;52.070;4.508;2023-02-28T12:11:59;4.32;;;1.80;;
49029;SDS011;43337;52.070;4.508;2023-02-28T12:20:33;5.63;;;1.95;;
49029;SDS011;43337;52.070;4.508;2023-02-28T12:25:39;3.88;;;1.98;;
49029;SDS011;43337;52.070;4.508;2023-02-28T12:28:10;7.53;;;1.90;;
49029;SDS011;43337;52.070;4.508;2023-02-28T12:30:39;3.15;;;1.83;;
49029;SDS011;43337;52.070;4.508;2023-02-28T12:33:16;3.05;;;1.58;;
49029;SDS011;43337;52.070;4.508;2023-02-28T12:35:49;3.55;;;1.90;;
49029;SDS011;43337;52.070;4.508;2023-02-28T12:38:25;3.30;;;1.77;;
49029;SDS011;43337;52.070;4.508;2023-02-28T12:41:00;5.13;;;1.80;;
49029;SDS011;43337;52.070;4.508;2023-02-28T12:43:31;4.20;;;1.88;;
49029;SDS011;43337;52.070;4.508;2023-02-28T12:46:02;5.13;;;2.58;;
49029;SDS011;43337;52.070;4.508;2023-02-28T12:51:21;3.40;;;2.03;;
49029;SDS011;43337;52.070;4.508;2023-02-28T13:10:13;3.65;;;1.80;;
49029;SDS011;43337;52.070;4.508;2023-02-28T13:12:48;2.88;;;1.80;;
49029;SDS011;43337;52.070;4.508;2023-02-28T13:15:19;2.97;;;1.75;;
49029;SDS011;43337;52.070;4.508;2023-02-28T13:17:50;5.70;;;2.38;;
49029;SDS011;43337;52.070;4.508;2023-02-28T13:20:21;3.70;;;2.22;;
49029;SDS011;43337;52.070;4.508;2023-02-28T13:22:49;4.20;;;2.40;;
49029;SDS011;43337;52.070;4.508;2023-02-28T13:27:58;3.58;;;1.95;;
49029;SDS011;43337;52.070;4.508;2023-02-28T13:36:11;5.22;;;1.80;;
49029;SDS011;43337;52.070;4.508;2023-02-28T13:44:05;5.03;;;2.13;;
49029;SDS011;43337;52.070;4.508;2023-02-28T13:46:34;6.18;;;3.03;;
49029;SDS011;43337;52.070;4.508;2023-02-28T13:49:25;6.90;;;2.78;;
49029;SDS011;43337;52.070;4.508;2023-02-28T13:52:02;4.70;;;2.35;;
49029;SDS011;43337;52.070;4.508;2023-02-28T13:57:35;5.50;;;2.05;;
49029;SDS011;43337;52.070;4.508;2023-02-28T14:05:33;5.33;;;2.20;;
49029;SDS011;43337;52.070;4.508;2023-02-28T14:08:04;3.30;;;1.90;;
49029;SDS011;43337;52.070;4.508;2023-02-28T14:10:39;4.67;;;2.03;;
49029;SDS011;43337;52.070;4.508;2023-02-28T14:15:46;3.90;;;2.00;;
49029;SDS011;43337;52.070;4.508;2023-02-28T14:18:42;3.75;;;1.95;;
49029;SDS011;43337;52.070;4.508;2023-02-28T14:21:27;3.63;;;1.90;;
49029;SDS011;43337;52.070;4.508;2023-02-28T14:32:32;3.20;;;1.75;;
49029;SDS011;43337;52.070;4.508;2023-02-28T14:37:53;3.92;;;2.00;;
49029;SDS011;43337;52.070;4.508;2023-02-28T14:40:22;4.50;;;1.65;;
49029;SDS011;43337;52.070;4.508;2023-02-28T14:42:56;4.07;;;2.00;;
49029;SDS011;43337;52.070;4.508;2023-02-28T14:45:30;3.72;;;1.92;;
49029;SDS011;43337;52.070;4.508;2023-02-28T14:47:59;3.10;;;1.58;;
49029;SDS011;43337;52.070;4.508;2023-02-28T14:50:27;3.45;;;1.63;;
49029;SDS011;43337;52.070;4.508;2023-02-28T14:52:56;3.83;;;2.00;;
49029;SDS011;43337;52.070;4.508;2023-02-28T14:55:26;4.07;;;2.42;;
49029;SDS011;43337;52.070;4.508;2023-02-28T14:57:56;3.47;;;1.80;;
49029;SDS011;43337;52.070;4.508;2023-02-28T15:02:50;5.82;;;1.70;;
49029;SDS011;43337;52.070;4.508;2023-02-28T15:05:19;4.63;;;1.65;;
49029;SDS011;43337;52.070;4.508;2023-02-28T15:07:48;3.47;;;1.80;;
49029;SDS011;43337;52.070;4.508;2023-02-28T15:10:26;4.72;;;2.30;;
49029;SDS011;43337;52.070;4.508;2023-02-28T15:12:52;4.15;;;2.30;;
49029;SDS011;43337;52.070;4.508;2023-02-28T15:16:08;7.38;;;2.47;;
49029;SDS011;43337;52.070;4.508;2023-02-28T15:18:23;5.25;;;1.92;;
49029;SDS011;43337;52.070;4.508;2023-02-28T15:20:55;6.50;;;1.73;;
49029;SDS011;43337;52.070;4.508;2023-02-28T15:23:26;3.40;;;1.67;;
49029;SDS011;43337;52.070;4.508;2023-02-28T15:25:52;2.97;;;1.65;;
49029;SDS011;43337;52.070;4.508;2023-02-28T15:28:19;3.90;;;2.00;;
49029;SDS011;43337;52.070;4.508;2023-02-28T15:31:17;3.58;;;1.83;;
49029;SDS011;43337;52.070;4.508;2023-02-28T15:33:53;4.33;;;2.40;;
49029;SDS011;43337;52.070;4.508;2023-02-28T15:36:28;7.90;;;2.17;;
49029;SDS011;43337;52.070;4.508;2023-02-28T15:38:56;3.93;;;1.90;;
49029;SDS011;43337;52.070;4.508;2023-02-28T15:41:35;4.15;;;2.00;;
49029;SDS011;43337;52.070;4.508;2023-02-28T15:49:40;4.40;;;1.98;;
49029;SDS011;43337;52.070;4.508;2023-02-28T15:52:16;4.10;;;1.80;;
49029;SDS011;43337;52.070;4.508;2023-02-28T15:54:46;4.50;;;1.80;;
49029;SDS011;43337;52.070;4.508;2023-02-28T15:57:17;5.75;;;2.28;;
49029;SDS011;43337;52.070;4.508;2023-02-28T16:00:05;3.85;;;2.00;;
49029;SDS011;43337;52.070;4.508;2023-02-28T16:02:37;3.22;;;1.90;;
49029;SDS011;43337;52.070;4.508;2023-02-28T16:07:31;4.38;;;2.20;;
49029;SDS011;43337;52.070;4.508;2023-02-28T16:09:57;4.78;;;2.20;;
49029;SDS011;43337;52.070;4.508;2023-02-28T16:12:27;4.00;;;2.20;;
49029;SDS011;43337;52.070;4.508;2023-02-28T16:14:55;4.03;;;2.00;;
49029;SDS011;43337;52.070;4.508;2023-02-28T16:17:24;4.70;;;2.40;;
49029;SDS011;43337;52.070;4.508;2023-02-28T16:19:52;3.85;;;1.80;;
49029;SDS011;43337;52.070;4.508;2023-02-28T16:22:18;4.88;;;2.30;;
49029;SDS011;43337;52.070;4.508;2023-02-28T16:24:43;5.18;;;2.10;;
49029;SDS011;43337;52.070;4.508;2023-02-28T16:27:42;4.28;;;2.17;;
49029;SDS011;43337;52.070;4.508;2023-02-28T16:30:03;7.28;;;2.75;;
49029;SDS011;43337;52.070;4.508;2023-02-28T16:32:30;6.68;;;2.55;;
49029;SDS011;43337;52.070;4.508;2023-02-28T16:34:59;3.95;;;2.08;;
49029;SDS011;43337;52.070;4.508;2023-02-28T16:37:26;4.10;;;2.30;;
49029;SDS011;43337;52.070;4.508;2023-02-28T16:39:52;5.47;;;2.03;;
49029;SDS011;43337;52.070;4.508;2023-02-28T16:42:21;4.93;;;2.60;;
49029;SDS011;43337;52.070;4.508;2023-02-28T16:44:50;4.03;;;2.28;;
49029;SDS011;43337;52.070;4.508;2023-02-28T16:47:16;6.25;;;2.78;;
49029;SDS011;43337;52.070;4.508;2023-02-28T16:49:42;4.30;;;2.53;;
49029;SDS011;43337;52.070;4.508;2023-02-28T16:52:08;5.90;;;2.58;;
49029;SDS011;43337;52.070;4.508;2023-02-28T16:54:35;4.50;;;2.53;;
49029;SDS011;43337;52.070;4.508;2023-02-28T16:57:01;5.63;;;2.88;;
49029;SDS011;43337;52.070;4.508;2023-02-28T16:59:26;5.35;;;2.42;;
49029;SDS011;43337;52.070;4.508;2023-02-28T17:01:53;5.93;;;3.08;;
49029;SDS011;43337;52.070;4.508;2023-02-28T17:04:21;5.50;;;3.03;;
49029;SDS011;43337;52.070;4.508;2023-02-28T17:06:47;4.95;;;2.65;;
49029;SDS011;43337;52.070;4.508;2023-02-28T17:09:30;6.07;;;2.65;;
49029;SDS011;43337;52.070;4.508;2023-02-28T17:11:56;4.90;;;2.88;;
49029;SDS011;43337;52.070;4.508;2023-02-28T17:14:21;6.20;;;3.00;;
49029;SDS011;43337;52.070;4.508;2023-02-28T17:16:48;5.00;;;3.40;;
49029;SDS011;43337;52.070;4.508;2023-02-28T17:19:15;5.00;;;2.67;;
49029;SDS011;43337;52.070;4.508;2023-02-28T17:21:42;6.93;;;2.97;;
49029;SDS011;43337;52.070;4.508;2023-02-28T17:24:08;7.93;;;2.83;;
49029;SDS011;43337;52.070;4.508;2023-02-28T17:26:37;4.63;;;2.53;;